createdAt,value
2023-04-01T00:01:14.863Z,11.78
2023-04-01T00:03:42.105Z,11.76
2023-04-01T00:06:11.110Z,11.80
2023-04-01T00:08:37.787Z,11.80
2023-04-01T00:11:04.343Z,11.81
2023-04-01T00:13:30.857Z,11.76
2023-04-01T00:15:57.734Z,11.73
2023-04-01T00:18:26.603Z,11.67
2023-04-01T00:20:53.835Z,11.67
2023-04-01T00:23:21.637Z,11.70
2023-04-01T00:25:50.566Z,11.73
2023-04-01T00:28:18.991Z,11.75
2023-04-01T00:30:45.656Z,11.61
2023-04-01T00:33:12.366Z,11.68
2023-04-01T00:35:39.498Z,11.69
2023-04-01T00:38:07.183Z,11.60
2023-04-01T00:40:37.487Z,11.65
2023-04-01T00:43:10.348Z,11.60
2023-04-01T00:45:42.972Z,11.54
2023-04-01T00:48:19.379Z,11.57
2023-04-01T00:50:51.833Z,11.56
2023-04-01T00:53:21.252Z,11.66
2023-04-01T00:55:55.265Z,11.49
2023-04-01T00:58:24.449Z,11.48
2023-04-01T01:00:52.432Z,11.49
2023-04-01T01:03:19.213Z,11.54
2023-04-01T01:06:04.311Z,11.61
2023-04-01T01:08:38.634Z,11.45
2023-04-01T01:11:09.705Z,11.39
2023-04-01T01:14:25.915Z,11.50
2023-04-01T01:17:27.157Z,11.45
2023-04-01T01:20:26.177Z,11.43
2023-04-01T01:23:22.140Z,11.40
2023-04-01T01:26:11.128Z,11.31
2023-04-01T01:28:46.824Z,11.35
2023-04-01T01:31:22.252Z,11.35
2023-04-01T01:33:48.879Z,11.42
2023-04-01T01:36:18.058Z,11.40
2023-04-01T01:38:46.216Z,11.25
2023-04-01T01:41:15.315Z,11.31
2023-04-01T01:43:45.138Z,11.25
2023-04-01T01:46:20.356Z,11.25
2023-04-01T01:48:48.548Z,11.31
2023-04-01T01:51:15.898Z,11.31
2023-04-01T01:53:42.438Z,11.25
2023-04-01T01:56:11.166Z,11.15
2023-04-01T01:58:46.155Z,11.09
2023-04-01T02:01:27.365Z,11.10
2023-04-01T02:03:55.555Z,11.15
2023-04-01T02:06:30.071Z,11.15
2023-04-01T02:09:04.859Z,11.11
2023-04-01T02:11:37.539Z,11.08
2023-04-01T02:14:21.168Z,11.11
2023-04-01T02:17:12.080Z,11.14
2023-04-01T02:19:53.155Z,11.14
2023-04-01T02:22:24.940Z,11.12
2023-04-01T02:24:54.806Z,11.16
2023-04-01T02:27:22.118Z,11.16
2023-04-01T02:29:48.801Z,11.11
2023-04-01T02:32:15.842Z,11.06
2023-04-01T02:34:43.404Z,11.06
2023-04-01T02:37:11.481Z,11.12
2023-04-01T02:39:38.385Z,11.05
2023-04-01T02:42:05.549Z,11.06
2023-04-01T02:44:32.623Z,11.01
2023-04-01T02:46:59.262Z,10.99
2023-04-01T02:49:25.871Z,10.93
2023-04-01T02:51:52.938Z,10.93
2023-04-01T02:54:20.496Z,10.92
2023-04-01T02:56:47.165Z,10.88
2023-04-01T02:59:13.847Z,10.82
2023-04-01T03:01:40.735Z,10.86
2023-04-01T03:04:07.509Z,10.78
2023-04-01T03:06:34.639Z,10.76
2023-04-01T03:09:01.188Z,10.73
2023-04-01T03:11:27.902Z,10.78
2023-04-01T03:13:54.511Z,10.71
2023-04-01T03:16:21.156Z,10.62
2023-04-01T03:18:47.759Z,10.65
2023-04-01T03:21:20.394Z,10.66
2023-04-01T03:23:46.983Z,10.62
2023-04-01T03:26:14.359Z,10.59
2023-04-01T03:28:41.356Z,10.58
2023-04-01T03:31:08.165Z,10.59
2023-04-01T03:33:34.808Z,10.53
2023-04-01T03:36:01.564Z,10.53
2023-04-01T03:38:28.177Z,10.53
2023-04-01T03:40:54.900Z,10.56
2023-04-01T03:43:21.513Z,10.56
2023-04-01T03:45:49.913Z,10.58
2023-04-01T03:48:16.871Z,10.56
2023-04-01T03:50:43.952Z,10.60
2023-04-01T03:53:11.177Z,10.60
2023-04-01T03:55:38.552Z,10.61
2023-04-01T03:58:06.621Z,10.71
2023-04-01T04:00:33.450Z,10.71
2023-04-01T04:03:00.485Z,10.66
2023-04-01T04:05:28.114Z,10.69
2023-04-01T04:07:55.460Z,10.75
2023-04-01T04:10:23.987Z,10.79
2023-04-01T04:12:51.001Z,10.72
2023-04-01T04:15:17.813Z,10.72
2023-04-01T04:17:46.339Z,10.76
2023-04-01T04:20:13.830Z,10.71
2023-04-01T04:22:40.609Z,10.81
2023-04-01T04:25:08.076Z,10.71
2023-04-01T04:27:34.803Z,10.70
2023-04-01T04:30:01.384Z,10.72
2023-04-01T04:32:29.472Z,10.77
2023-04-01T04:34:56.629Z,10.71
2023-04-01T04:37:23.198Z,10.74
2023-04-01T04:39:49.782Z,10.69
2023-04-01T04:42:16.378Z,10.65
2023-04-01T04:44:42.912Z,10.72
2023-04-01T04:47:09.533Z,10.72
2023-04-01T04:49:36.143Z,10.80
2023-04-01T04:52:02.716Z,10.81
2023-04-01T04:54:30.504Z,10.80
2023-04-01T04:56:57.085Z,10.76
2023-04-01T04:59:23.764Z,10.73
2023-04-01T05:01:50.606Z,10.77
2023-04-01T05:04:17.269Z,10.77
2023-04-01T05:06:46.333Z,10.70
2023-04-01T05:09:13.020Z,10.72
2023-04-01T05:11:39.537Z,10.66
2023-04-01T05:14:06.146Z,10.62
2023-04-01T05:16:32.846Z,10.73
2023-04-01T05:18:59.398Z,10.70
2023-04-01T05:21:26.485Z,10.70
2023-04-01T05:23:53.070Z,10.78
2023-04-01T05:26:19.592Z,10.67
2023-04-01T05:28:46.572Z,10.72
2023-04-01T05:31:13.250Z,10.74
2023-04-01T05:33:40.411Z,10.71
2023-04-01T05:36:15.519Z,10.74
2023-04-01T05:38:43.422Z,10.75
2023-04-01T05:41:10.337Z,10.75
2023-04-01T05:43:37.835Z,10.73
2023-04-01T05:46:04.440Z,10.64
2023-04-01T05:48:31.101Z,10.74
2023-04-01T05:50:57.891Z,10.79
2023-04-01T05:53:24.531Z,10.76
2023-04-01T05:55:51.117Z,10.71
2023-04-01T05:58:18.049Z,10.64
2023-04-01T06:00:45.612Z,10.75
2023-04-01T06:03:13.266Z,10.83
2023-04-01T06:05:42.186Z,10.71
2023-04-01T06:08:19.625Z,10.70
2023-04-01T06:11:00.749Z,10.72
2023-04-01T06:13:56.065Z,10.70
2023-04-01T06:16:36.815Z,10.78
2023-04-01T06:19:20.064Z,10.84
2023-04-01T06:21:49.700Z,10.78
2023-04-01T06:24:37.512Z,10.83
2023-04-01T06:27:13.162Z,10.88
2023-04-01T06:29:53.800Z,10.98
2023-04-01T06:32:31.512Z,10.92
2023-04-01T06:35:46.611Z,10.88
2023-04-01T06:38:29.698Z,11.04
2023-04-01T06:40:59.223Z,11.01
2023-04-01T06:43:50.044Z,10.98
2023-04-01T06:46:29.842Z,10.95
2023-04-01T06:49:07.644Z,10.93
2023-04-01T06:51:36.994Z,11.00
2023-04-01T06:54:26.142Z,11.01
2023-04-01T06:57:01.380Z,11.09
2023-04-01T06:59:35.606Z,11.07
2023-04-01T07:02:13.174Z,11.12
2023-04-01T07:04:48.064Z,11.14
2023-04-01T07:07:28.308Z,11.16
2023-04-01T07:10:02.388Z,11.16
2023-04-01T07:12:46.749Z,11.24
2023-04-01T07:15:20.408Z,11.35
2023-04-01T07:17:53.721Z,11.40
2023-04-01T07:20:32.781Z,11.45
2023-04-01T07:23:03.313Z,11.33
2023-04-01T07:25:44.621Z,11.39
2023-04-01T07:28:17.700Z,11.38
2023-04-01T07:31:10.763Z,11.36
2023-04-01T07:34:01.605Z,11.42
2023-04-01T07:36:40.010Z,11.42
2023-04-01T07:39:13.426Z,11.44
2023-04-01T07:42:02.840Z,11.53
2023-04-01T07:45:01.880Z,11.70
2023-04-01T07:47:46.898Z,11.63
2023-04-01T07:50:25.019Z,11.66
2023-04-01T07:53:14.552Z,11.61
2023-04-01T07:55:51.739Z,11.64
2023-04-01T07:58:18.616Z,11.65
2023-04-01T08:01:02.924Z,11.67
2023-04-01T08:04:23.294Z,11.65
2023-04-01T08:06:59.976Z,11.55
2023-04-01T08:09:30.410Z,11.73
2023-04-01T08:12:38.275Z,11.79
2023-04-01T08:15:14.118Z,12.08
2023-04-01T08:18:34.668Z,12.15
2023-04-01T08:21:05.381Z,12.32
2023-04-01T08:23:39.601Z,12.35
2023-04-01T08:26:14.143Z,12.39
2023-04-01T08:28:45.772Z,12.27
2023-04-01T08:31:24.055Z,12.44
2023-04-01T08:33:55.208Z,12.50
2023-04-01T08:36:33.892Z,12.42
2023-04-01T08:39:40.682Z,12.57
2023-04-01T08:42:41.458Z,12.73
2023-04-01T08:45:46.505Z,12.72
2023-04-01T08:48:43.052Z,13.08
2023-04-01T08:51:21.457Z,12.75
2023-04-01T08:54:06.366Z,12.67
2023-04-01T08:57:05.064Z,12.94
2023-04-01T08:59:59.527Z,12.78
2023-04-01T09:03:07.819Z,12.94
2023-04-01T09:05:48.833Z,12.93
2023-04-01T09:08:44.614Z,13.10
2023-04-01T09:11:29.104Z,13.02
2023-04-01T09:14:04.963Z,13.04
2023-04-01T09:17:07.037Z,13.34
2023-04-01T09:19:33.608Z,13.20
2023-04-01T09:22:10.887Z,13.29
2023-04-01T09:24:57.588Z,13.40
2023-04-01T09:27:32.018Z,13.35
2023-04-01T09:30:17.408Z,13.19
2023-04-01T09:33:21.658Z,13.38
2023-04-01T09:36:20.899Z,13.40
2023-04-01T09:38:59.700Z,13.14
2023-04-01T09:41:33.359Z,13.19
2023-04-01T09:44:02.716Z,13.15
2023-04-01T09:47:08.201Z,13.24
2023-04-01T09:49:37.414Z,13.38
2023-04-01T09:52:26.266Z,13.29
2023-04-01T09:55:11.662Z,13.28
2023-04-01T09:58:06.429Z,13.38
2023-04-01T10:01:07.346Z,13.34
2023-04-01T10:04:01.550Z,13.33
2023-04-01T10:06:55.707Z,13.31
2023-04-01T10:09:46.775Z,13.55
2023-04-01T10:12:40.730Z,13.58
2023-04-01T10:15:10.121Z,13.80
2023-04-01T10:17:42.813Z,13.83
2023-04-01T10:20:23.542Z,13.94
2023-04-01T10:23:14.315Z,14.19
2023-04-01T10:25:52.830Z,14.15
2023-04-01T10:28:35.689Z,14.47
2023-04-01T10:31:23.411Z,14.74
2023-04-01T10:34:08.586Z,14.47
2023-04-01T10:36:41.248Z,14.37
2023-04-01T10:39:31.099Z,14.43
2023-04-01T10:42:15.929Z,14.55
2023-04-01T10:45:19.351Z,14.42
2023-04-01T10:48:05.225Z,14.21
2023-04-01T10:51:02.625Z,14.30
2023-04-01T10:54:02.541Z,14.74
2023-04-01T10:56:40.732Z,14.53
2023-04-01T10:59:29.149Z,14.81
2023-04-01T11:02:10.045Z,14.61
2023-04-01T11:05:29.540Z,14.36
2023-04-01T11:08:22.166Z,14.12
2023-04-01T11:10:58.826Z,14.15
2023-04-01T11:13:37.594Z,13.27
2023-04-01T11:16:35.823Z,12.40
2023-04-01T11:19:31.542Z,12.26
2023-04-01T11:22:13.512Z,12.22
2023-04-01T11:25:31.358Z,12.43
2023-04-01T11:28:18.817Z,12.66
2023-04-01T11:31:01.415Z,12.74
2023-04-01T11:33:53.994Z,12.62
2023-04-01T11:36:36.938Z,12.59
2023-04-01T11:39:25.156Z,12.61
2023-04-01T11:42:42.573Z,12.58
2023-04-01T11:45:09.721Z,12.53
2023-04-01T11:48:01.171Z,12.51
2023-04-01T11:50:50.665Z,12.61
2023-04-01T11:53:32.856Z,12.74
2023-04-01T11:56:14.397Z,12.70
2023-04-01T11:58:52.719Z,12.80
2023-04-01T12:01:25.403Z,12.94
2023-04-01T12:04:01.522Z,12.99
2023-04-01T12:06:37.080Z,12.54
2023-04-01T12:09:24.234Z,12.71
2023-04-01T12:12:17.362Z,12.70
2023-04-01T12:15:17.422Z,13.04
2023-04-01T12:18:07.019Z,13.10
2023-04-01T12:20:39.644Z,13.03
2023-04-01T12:23:34.897Z,12.68
2023-04-01T12:26:07.561Z,12.92
2023-04-01T12:29:11.232Z,13.00
2023-04-01T12:31:57.254Z,13.17
2023-04-01T12:34:40.067Z,12.81
2023-04-01T12:37:29.531Z,12.87
2023-04-01T12:40:43.744Z,12.97
2023-04-01T12:43:48.610Z,13.00
2023-04-01T12:46:36.543Z,12.76
2023-04-01T12:49:34.535Z,12.61
2023-04-01T12:52:15.896Z,12.57
2023-04-01T12:55:01.834Z,12.81
2023-04-01T12:58:13.657Z,12.32
2023-04-01T13:00:46.328Z,12.30
2023-04-01T13:03:33.115Z,11.89
2023-04-01T13:06:21.458Z,11.64
2023-04-01T13:09:09.837Z,11.51
2023-04-01T13:11:57.179Z,10.06
2023-04-01T13:14:31.806Z,9.77
2023-04-01T13:17:26.350Z,9.88
2023-04-01T13:20:06.529Z,9.93
2023-04-01T13:22:57.010Z,9.92
2023-04-01T13:25:41.873Z,10.04
2023-04-01T13:29:01.043Z,10.08
2023-04-01T13:31:59.240Z,9.95
2023-04-01T13:34:48.938Z,9.97
2023-04-01T13:37:29.430Z,9.84
2023-04-01T13:40:20.897Z,10.09
2023-04-01T13:42:59.561Z,10.24
2023-04-01T13:45:39.422Z,10.44
2023-04-01T13:48:27.441Z,10.58
2023-04-01T13:51:18.366Z,10.56
2023-04-01T13:53:47.888Z,10.51
2023-04-01T13:56:41.646Z,10.45
2023-04-01T13:59:29.245Z,10.45
2023-04-01T14:02:33.573Z,10.49
2023-04-01T14:05:44.930Z,10.70
2023-04-01T14:08:36.489Z,10.69
2023-04-01T14:11:34.354Z,10.82
2023-04-01T14:14:20.495Z,10.77
2023-04-01T14:17:02.646Z,10.82
2023-04-01T14:19:34.935Z,10.79
2023-04-01T14:22:34.733Z,10.55
2023-04-01T14:25:26.349Z,10.75
2023-04-01T14:27:55.623Z,10.57
2023-04-01T14:30:44.043Z,10.60
2023-04-01T14:33:49.196Z,10.63
2023-04-01T14:36:42.603Z,10.60
2023-04-01T14:39:27.639Z,10.48
2023-04-01T14:42:22.256Z,10.50
2023-04-01T14:45:22.679Z,10.46
2023-04-01T14:48:17.404Z,10.22
2023-04-01T14:50:51.922Z,10.11
2023-04-01T14:53:27.913Z,10.03
2023-04-01T14:55:56.381Z,9.78
2023-04-01T14:58:28.132Z,8.99
2023-04-01T15:01:07.075Z,7.96
2023-04-01T15:03:49.515Z,7.84
2023-04-01T15:06:53.787Z,7.86
2023-04-01T15:09:36.198Z,7.67
2023-04-01T15:12:17.611Z,7.79
2023-04-01T15:15:16.208Z,7.95
2023-04-01T15:18:15.227Z,7.89
2023-04-01T15:21:06.353Z,7.82
2023-04-01T15:23:42.236Z,7.79
2023-04-01T15:26:26.992Z,7.89
2023-04-01T15:29:02.458Z,8.00
2023-04-01T15:32:01.624Z,8.13
2023-04-01T15:34:28.550Z,8.09
2023-04-01T15:37:21.160Z,8.07
2023-04-01T15:40:12.566Z,8.16
2023-04-01T15:43:12.936Z,8.17
2023-04-01T15:46:17.902Z,8.22
2023-04-01T15:49:13.463Z,8.29
2023-04-01T15:51:57.480Z,8.24
2023-04-01T15:54:52.702Z,8.36
2023-04-01T15:57:40.599Z,8.47
2023-04-01T16:00:17.072Z,8.49
2023-04-01T16:03:09.964Z,8.58
2023-04-01T16:05:53.347Z,8.67
2023-04-01T16:08:44.168Z,8.79
2023-04-01T16:11:23.088Z,8.82
2023-04-01T16:14:11.526Z,8.92
2023-04-01T16:17:03.075Z,9.16
2023-04-01T16:19:42.208Z,9.22
2023-04-01T16:22:11.949Z,9.33
2023-04-01T16:24:52.123Z,9.73
2023-04-01T16:27:57.374Z,9.50
2023-04-01T16:30:34.617Z,9.38
2023-04-01T16:33:16.501Z,9.54
2023-04-01T16:35:43.179Z,9.63
2023-04-01T16:38:22.360Z,9.46
2023-04-01T16:41:04.595Z,9.48
2023-04-01T16:43:53.144Z,9.47
2023-04-01T16:46:29.720Z,9.42
2023-04-01T16:49:01.797Z,9.40
2023-04-01T16:52:05.418Z,9.31
2023-04-01T16:54:36.975Z,9.30
2023-04-01T16:57:10.482Z,9.35
2023-04-01T16:59:46.055Z,9.46
2023-04-01T17:02:15.595Z,9.46
2023-04-01T17:04:49.552Z,9.47
2023-04-01T17:07:40.920Z,9.34
2023-04-01T17:10:25.439Z,9.38
2023-04-01T17:13:23.486Z,9.34
2023-04-01T17:16:21.184Z,9.42
2023-04-01T17:19:12.624Z,9.74
2023-04-01T17:22:02.407Z,9.73
2023-04-01T17:24:34.681Z,9.56
2023-04-01T17:27:26.504Z,9.45
2023-04-01T17:30:19.245Z,9.57
2023-04-01T17:33:09.709Z,9.54
2023-04-01T17:35:58.396Z,9.39
2023-04-01T17:38:56.285Z,9.44
2023-04-01T17:41:36.690Z,9.34
2023-04-01T17:44:21.637Z,9.33
2023-04-01T17:47:06.903Z,9.41
2023-04-01T17:49:55.444Z,9.39
2023-04-01T17:52:43.215Z,9.43
2023-04-01T17:55:42.141Z,9.33
2023-04-01T17:58:17.879Z,9.31
2023-04-01T18:01:06.104Z,9.18
2023-04-01T18:04:00.047Z,9.07
2023-04-01T18:06:54.354Z,9.03
2023-04-01T18:09:49.203Z,8.99
2023-04-01T18:12:32.884Z,8.77
2023-04-01T18:15:04.082Z,8.57
2023-04-01T18:17:39.416Z,8.68
2023-04-01T18:20:30.349Z,8.51
2023-04-01T18:23:07.279Z,8.35
2023-04-01T18:25:39.180Z,8.38
2023-04-01T18:28:50.935Z,8.26
2023-04-01T18:31:21.457Z,8.22
2023-04-01T18:33:59.461Z,8.19
2023-04-01T18:36:26.174Z,8.29
2023-04-01T18:39:08.573Z,8.26
2023-04-01T18:42:04.050Z,8.21
2023-04-01T18:44:30.576Z,8.32
2023-04-01T18:47:15.146Z,8.28
2023-04-01T18:49:56.530Z,8.27
2023-04-01T18:52:29.878Z,8.30
2023-04-01T18:55:05.799Z,8.25
2023-04-01T18:57:50.541Z,8.35
2023-04-01T19:00:34.403Z,8.23
2023-04-01T19:03:21.853Z,8.34
2023-04-01T19:05:52.706Z,8.17
2023-04-01T19:08:27.775Z,8.28
2023-04-01T19:11:35.375Z,8.13
2023-04-01T19:14:07.931Z,8.07
2023-04-01T19:17:05.205Z,8.13
2023-04-01T19:20:01.233Z,8.16
2023-04-01T19:22:46.497Z,8.26
2023-04-01T19:25:34.600Z,8.21
2023-04-01T19:28:27.102Z,8.05
2023-04-01T19:31:18.290Z,8.14
2023-04-01T19:33:54.018Z,7.97
2023-04-01T19:36:28.949Z,8.13
2023-04-01T19:39:24.074Z,8.23
2023-04-01T19:42:26.161Z,8.15
2023-04-01T19:44:55.598Z,8.22
2023-04-01T19:47:43.761Z,8.19
2023-04-01T19:50:36.642Z,8.10
2023-04-01T19:53:45.001Z,8.04
2023-04-01T19:56:22.692Z,8.15
2023-04-01T19:58:55.082Z,8.10
2023-04-01T20:01:43.683Z,8.05
2023-04-01T20:04:42.191Z,8.04
2023-04-01T20:07:17.278Z,8.05
2023-04-01T20:09:54.865Z,8.14
2023-04-01T20:12:43.589Z,8.04
2023-04-01T20:15:37.060Z,8.13
2023-04-01T20:18:13.501Z,8.10
2023-04-01T20:20:41.078Z,8.09
2023-04-01T20:23:51.205Z,7.99
2023-04-01T20:26:24.186Z,7.93
2023-04-01T20:29:07.165Z,7.88
2023-04-01T20:31:46.444Z,7.88
2023-04-01T20:34:27.853Z,7.82
2023-04-01T20:37:09.865Z,7.79
2023-04-01T20:40:11.629Z,7.83
2023-04-01T20:42:56.409Z,7.75
2023-04-01T20:45:22.958Z,7.84
2023-04-01T20:48:04.533Z,7.80
2023-04-01T20:50:43.607Z,7.81
2023-04-01T20:53:21.244Z,7.79
2023-04-01T20:55:47.754Z,7.87
2023-04-01T20:58:30.642Z,7.80
2023-04-01T21:01:06.383Z,7.82
2023-04-01T21:03:56.197Z,7.75
2023-04-01T21:06:35.146Z,7.78
2023-04-01T21:09:04.683Z,7.75
2023-04-01T21:11:34.570Z,7.79
2023-04-01T21:14:26.003Z,7.85
2023-04-01T21:17:04.638Z,7.84
2023-04-01T21:19:54.499Z,7.82
2023-04-01T21:22:58.111Z,7.85
2023-04-01T21:25:52.185Z,7.81
2023-04-01T21:28:43.007Z,7.77
2023-04-01T21:31:36.964Z,7.75
2023-04-01T21:34:31.382Z,7.76
2023-04-01T21:37:27.115Z,7.73
2023-04-01T21:40:11.854Z,7.72
2023-04-01T21:42:41.378Z,7.69
2023-04-01T21:45:17.285Z,7.62
2023-04-01T21:48:10.069Z,7.64
2023-04-01T21:50:36.538Z,7.65
2023-04-01T21:53:50.809Z,7.61
2023-04-01T21:56:26.798Z,7.56
2023-04-01T21:59:15.420Z,7.58
2023-04-01T22:01:41.945Z,7.58
2023-04-01T22:04:12.021Z,7.58
2023-04-01T22:07:01.715Z,7.60
2023-04-01T22:09:40.758Z,7.55
2023-04-01T22:12:19.215Z,7.53
2023-04-01T22:14:57.749Z,7.54
2023-04-01T22:17:52.948Z,7.55
2023-04-01T22:20:25.344Z,7.55
2023-04-01T22:23:01.011Z,7.54
2023-04-01T22:25:56.447Z,7.58
2023-04-01T22:28:41.776Z,7.60
2023-04-01T22:31:12.189Z,7.61
2023-04-01T22:33:41.423Z,7.63
2023-04-01T22:36:20.366Z,7.61
2023-04-01T22:38:59.093Z,7.58
2023-04-01T22:41:34.862Z,7.56
2023-04-01T22:44:01.666Z,7.58
2023-04-01T22:46:31.298Z,7.57
2023-04-01T22:49:23.475Z,7.53
2023-04-01T22:52:09.829Z,7.48
2023-04-01T22:55:16.587Z,7.49
2023-04-01T22:57:51.381Z,7.47
2023-04-01T23:00:26.955Z,7.44
2023-04-01T23:03:49.518Z,7.42
2023-04-01T23:06:28.733Z,7.42
2023-04-01T23:09:04.187Z,7.36
2023-04-01T23:11:36.832Z,7.40
2023-04-01T23:14:21.425Z,7.34
2023-04-01T23:17:08.829Z,7.30
2023-04-01T23:19:58.559Z,7.31
2023-04-01T23:22:56.153Z,7.31
2023-04-01T23:26:01.328Z,7.32
2023-04-01T23:28:45.267Z,7.34
2023-04-01T23:31:32.112Z,7.27
2023-04-01T23:34:23.773Z,7.32
2023-04-01T23:37:03.396Z,7.31
2023-04-01T23:39:34.481Z,7.25
2023-04-01T23:42:06.080Z,7.22
2023-04-01T23:44:34.559Z,7.22
2023-04-01T23:47:03.268Z,7.22
2023-04-01T23:49:36.639Z,7.26
2023-04-01T23:52:25.333Z,7.28
2023-04-01T23:55:02.759Z,7.24
2023-04-01T23:57:34.544Z,7.20
